createdAt,value
2022-12-29T00:00:57.373Z,660.4
2022-12-29T00:01:57.317Z,660.5
2022-12-29T00:02:57.605Z,660.8
2022-12-29T00:03:57.405Z,661.6
2022-12-29T00:04:57.301Z,661.8
2022-12-29T00:07:57.315Z,665
2022-12-29T00:09:57.309Z,665.8
2022-12-29T00:10:57.344Z,665.9
2022-12-29T00:11:57.304Z,665.6
2022-12-29T00:12:57.318Z,665.4
2022-12-29T00:13:57.350Z,666.2
2022-12-29T00:14:57.319Z,666.2
2022-12-29T00:15:57.411Z,665.4
2022-12-29T00:16:57.333Z,665
2022-12-29T00:17:57.300Z,663.1
2022-12-29T00:19:57.345Z,660.4
2022-12-29T00:20:57.370Z,659.4
2022-12-29T00:21:57.310Z,659.4
2022-12-29T00:22:57.299Z,658.7
2022-12-29T00:23:57.309Z,659.1
2022-12-29T00:24:57.308Z,657.3
2022-12-29T00:25:57.308Z,657.5
2022-12-29T00:26:57.321Z,657.9
2022-12-29T00:28:00.332Z,656.5
2022-12-29T00:28:57.303Z,655.5
2022-12-29T00:31:57.301Z,653.2
2022-12-29T00:36:57.315Z,652.5
2022-12-29T00:37:57.310Z,651.9
2022-12-29T00:40:57.389Z,646.2
2022-12-29T00:41:57.313Z,645.2
2022-12-29T00:42:57.306Z,645
2022-12-29T00:43:57.323Z,644.2
2022-12-29T00:44:57.382Z,643.1
2022-12-29T00:45:57.335Z,642.6
2022-12-29T00:46:57.373Z,642.8
2022-12-29T00:47:57.306Z,642.7
2022-12-29T00:49:57.313Z,642.6
2022-12-29T00:50:57.333Z,641.5
2022-12-29T00:51:57.328Z,641.4
2022-12-29T00:52:57.305Z,642.4
2022-12-29T00:53:57.308Z,642.6
2022-12-29T00:54:57.327Z,643.7
2022-12-29T00:55:57.308Z,644.9
2022-12-29T00:56:57.330Z,644.6
2022-12-29T00:57:57.303Z,644.4
2022-12-29T00:58:57.318Z,644.5
2022-12-29T00:59:57.312Z,645.1
2022-12-29T01:00:57.472Z,645.8
2022-12-29T01:01:57.448Z,646.4
2022-12-29T01:02:57.408Z,643.1
2022-12-29T01:04:02.032Z,642.3
2022-12-29T01:04:57.325Z,643.7
2022-12-29T01:05:57.310Z,645
2022-12-29T01:08:57.315Z,647.9
2022-12-29T01:11:57.306Z,645.8
2022-12-29T01:13:57.333Z,643.9
2022-12-29T01:17:57.314Z,637.8
2022-12-29T01:18:57.313Z,639.2
2022-12-29T01:19:57.305Z,638.3
2022-12-29T01:21:57.307Z,637
2022-12-29T01:22:57.312Z,634.3
2022-12-29T01:23:57.316Z,634.3
2022-12-29T01:24:57.317Z,633.1
2022-12-29T01:25:57.315Z,634
2022-12-29T01:26:57.321Z,634
2022-12-29T01:29:57.315Z,633.8
2022-12-29T01:30:57.313Z,634.6
2022-12-29T01:32:57.317Z,638
2022-12-29T01:33:57.319Z,640.3
2022-12-29T01:34:57.337Z,641.9
2022-12-29T01:35:57.320Z,642.6
2022-12-29T01:36:57.304Z,643.7
2022-12-29T01:37:57.310Z,642.9
2022-12-29T01:38:57.338Z,646.5
2022-12-29T01:39:57.331Z,649
2022-12-29T01:40:57.310Z,647.3
2022-12-29T01:41:57.327Z,647.1
2022-12-29T01:42:57.314Z,648.8
2022-12-29T01:43:57.328Z,651.2
2022-12-29T01:44:57.345Z,654.5
2022-12-29T01:45:57.382Z,656.3
2022-12-29T01:46:57.342Z,657.5
2022-12-29T01:47:57.319Z,657.1
2022-12-29T01:48:57.312Z,658.4
2022-12-29T01:50:57.309Z,660.7
2022-12-29T01:51:57.323Z,662
2022-12-29T01:53:57.315Z,660.2
2022-12-29T01:54:57.335Z,660.6
2022-12-29T01:55:57.383Z,661.2
2022-12-29T01:57:57.324Z,661.9
2022-12-29T01:58:57.317Z,663.3
2022-12-29T01:59:57.317Z,665.1
2022-12-29T02:00:57.391Z,665.6
2022-12-29T02:02:57.367Z,667.6
2022-12-29T02:03:57.314Z,667.3
2022-12-29T02:05:01.412Z,667.3
2022-12-29T02:05:57.309Z,667.6
2022-12-29T02:06:57.331Z,666.7
2022-12-29T02:07:57.312Z,667.1
2022-12-29T02:08:57.317Z,667.2
2022-12-29T02:09:57.317Z,667.8
2022-12-29T02:10:57.304Z,667.5
2022-12-29T02:11:57.311Z,667.7
2022-12-29T02:12:57.313Z,667.8
2022-12-29T02:13:57.320Z,667.3
2022-12-29T02:14:57.315Z,667.2
2022-12-29T02:15:57.450Z,667.2
2022-12-29T02:16:57.362Z,666.8
2022-12-29T02:17:57.331Z,666.5
2022-12-29T02:18:57.309Z,666.8
2022-12-29T02:19:57.314Z,666.9
2022-12-29T02:20:57.333Z,666.2
2022-12-29T02:23:57.316Z,665.4
2022-12-29T02:24:57.325Z,665.2
2022-12-29T02:25:57.399Z,664.3
2022-12-29T02:26:57.353Z,664.5
2022-12-29T02:28:57.425Z,663.4
2022-12-29T02:29:57.316Z,662.8
2022-12-29T02:30:57.323Z,662.3
2022-12-29T02:31:57.393Z,661.3
2022-12-29T02:32:57.324Z,661.3
2022-12-29T02:33:57.325Z,660.6
2022-12-29T02:34:57.332Z,660.7
2022-12-29T02:35:57.322Z,659.5
2022-12-29T02:36:57.329Z,659.3
2022-12-29T02:37:57.325Z,658.4
2022-12-29T02:39:57.349Z,657.4
2022-12-29T02:40:57.311Z,655.6
2022-12-29T02:41:57.317Z,653.1
2022-12-29T02:42:57.319Z,651.3
2022-12-29T02:43:57.316Z,650.3
2022-12-29T02:44:57.357Z,651.2
2022-12-29T02:46:57.315Z,651
2022-12-29T02:47:57.317Z,648.6
2022-12-29T02:48:57.340Z,645.7
2022-12-29T02:49:57.338Z,641.6
2022-12-29T02:52:57.315Z,638.8
2022-12-29T02:54:57.320Z,638.4
2022-12-29T02:55:57.319Z,638.6
2022-12-29T02:56:57.322Z,638.7
2022-12-29T02:57:57.325Z,638.3
2022-12-29T02:59:57.340Z,637.8
2022-12-29T03:00:57.403Z,637.2
2022-12-29T03:01:57.485Z,637.6
2022-12-29T03:02:57.502Z,637.1
2022-12-29T03:04:57.320Z,636.6
2022-12-29T03:05:57.325Z,636.5
2022-12-29T03:06:57.311Z,636.5
2022-12-29T03:07:57.330Z,636.3
2022-12-29T03:08:57.309Z,636.2
2022-12-29T03:09:57.334Z,636.1
2022-12-29T03:10:57.320Z,635.8
2022-12-29T03:11:57.320Z,635.4
2022-12-29T03:12:57.310Z,635.8
2022-12-29T03:13:57.312Z,635.6
2022-12-29T03:15:57.319Z,635.5
2022-12-29T03:16:57.390Z,635.7
2022-12-29T03:17:57.319Z,635.1
2022-12-29T03:18:57.314Z,635.1
2022-12-29T03:20:57.327Z,635.6
2022-12-29T03:21:57.321Z,636.6
2022-12-29T03:22:57.319Z,638.6
2022-12-29T03:23:57.320Z,639.9
2022-12-29T03:25:57.383Z,638.9
2022-12-29T03:26:57.316Z,637.9
2022-12-29T03:27:57.349Z,637.9
2022-12-29T03:28:57.312Z,638.1
2022-12-29T03:30:57.419Z,637.2
2022-12-29T03:31:57.318Z,637.3
2022-12-29T03:32:57.314Z,638
2022-12-29T03:33:57.325Z,637.4
2022-12-29T03:34:57.309Z,637.3
2022-12-29T03:35:57.317Z,636.8
2022-12-29T03:36:57.322Z,636.3
2022-12-29T03:37:57.521Z,636
2022-12-29T03:38:57.309Z,636.1
2022-12-29T03:39:57.332Z,636.5
2022-12-29T03:41:57.314Z,637.3
2022-12-29T03:42:57.316Z,636.7
2022-12-29T03:43:57.325Z,636.3
2022-12-29T03:44:57.326Z,636.7
2022-12-29T03:46:57.320Z,636.1
2022-12-29T03:47:57.324Z,636.2
2022-12-29T03:50:57.343Z,636.3
2022-12-29T03:52:57.313Z,635.5
2022-12-29T03:53:57.381Z,635.3
2022-12-29T03:54:57.341Z,635.2
2022-12-29T03:55:57.320Z,635.1
2022-12-29T03:56:57.314Z,635
2022-12-29T03:57:57.329Z,634.8
2022-12-29T03:58:57.320Z,634.9
2022-12-29T04:01:57.387Z,634.2
2022-12-29T04:02:57.573Z,634.4
2022-12-29T04:03:57.316Z,635
2022-12-29T04:04:57.320Z,635.4
2022-12-29T04:05:57.308Z,635.7
2022-12-29T04:06:57.321Z,635.3
2022-12-29T04:07:57.328Z,636.1
2022-12-29T04:08:57.324Z,637.1
2022-12-29T04:09:57.332Z,637.7
2022-12-29T04:10:57.393Z,637.4
2022-12-29T04:11:57.337Z,637.4
2022-12-29T04:12:57.322Z,637.5
2022-12-29T04:13:57.321Z,638.1
2022-12-29T04:14:57.324Z,638.4
2022-12-29T04:15:57.397Z,637.2
2022-12-29T04:16:57.333Z,637
2022-12-29T04:18:57.328Z,637.5
2022-12-29T04:19:57.327Z,636.7
2022-12-29T04:20:57.327Z,637
2022-12-29T04:21:57.343Z,637.1
2022-12-29T04:22:57.322Z,636.6
2022-12-29T04:23:57.344Z,636.6
2022-12-29T04:25:57.319Z,635.6
2022-12-29T04:26:57.337Z,636.2
2022-12-29T04:28:57.325Z,635.6
2022-12-29T04:30:57.365Z,637.1
2022-12-29T04:32:57.338Z,637.7
2022-12-29T04:33:57.319Z,637.1
2022-12-29T04:34:57.334Z,637
2022-12-29T04:35:57.320Z,635.9
2022-12-29T04:36:57.331Z,635.6
2022-12-29T04:37:57.320Z,636.3
2022-12-29T04:38:57.338Z,636.1
2022-12-29T04:40:57.326Z,636.9
2022-12-29T04:41:57.327Z,636.6
2022-12-29T04:42:57.332Z,636
2022-12-29T04:43:57.337Z,636
2022-12-29T04:44:57.326Z,635.5
2022-12-29T04:45:57.387Z,635
2022-12-29T04:46:57.424Z,635.1
2022-12-29T04:48:57.323Z,635
2022-12-29T04:49:57.327Z,635.3
2022-12-29T04:50:57.328Z,635.1
2022-12-29T04:51:57.323Z,634.9
2022-12-29T04:53:57.333Z,634.4
2022-12-29T04:54:57.337Z,634.5
2022-12-29T04:57:57.328Z,634.3
2022-12-29T04:58:57.345Z,634.4
2022-12-29T04:59:57.333Z,634.5
2022-12-29T05:03:57.343Z,633.6
2022-12-29T05:04:57.332Z,633.9
2022-12-29T05:05:57.336Z,633.4
2022-12-29T05:06:57.325Z,633.1
2022-12-29T05:07:57.325Z,633.2
2022-12-29T05:08:57.328Z,632.8
2022-12-29T05:09:57.348Z,633
2022-12-29T05:10:57.333Z,633
2022-12-29T05:11:57.332Z,633.1
2022-12-29T05:12:57.317Z,633
2022-12-29T05:13:57.353Z,632.7
2022-12-29T05:15:57.370Z,632.6
2022-12-29T05:17:57.340Z,632.7
2022-12-29T05:18:57.336Z,633.1
2022-12-29T05:21:57.318Z,632.8
2022-12-29T05:22:57.320Z,632.9
2022-12-29T05:23:57.352Z,632.6
2022-12-29T05:24:57.336Z,632.8
2022-12-29T05:25:57.322Z,632.8
2022-12-29T05:26:57.346Z,632.8
2022-12-29T05:27:57.331Z,632.9
2022-12-29T05:28:57.347Z,632.7
2022-12-29T05:29:57.342Z,632.7
2022-12-29T05:30:57.371Z,632.9
2022-12-29T05:31:57.388Z,633.1
2022-12-29T05:32:57.328Z,634.4
2022-12-29T05:34:57.357Z,636.3
2022-12-29T05:35:57.323Z,637.1
2022-12-29T05:36:57.325Z,638.4
2022-12-29T05:37:57.333Z,639.1
2022-12-29T05:38:57.341Z,639.8
2022-12-29T05:39:57.326Z,640.3
2022-12-29T05:40:57.392Z,641
2022-12-29T05:41:57.343Z,642.2
2022-12-29T05:42:57.344Z,643.3
2022-12-29T05:43:57.333Z,645.5
2022-12-29T05:44:57.329Z,650.1
2022-12-29T05:45:57.338Z,651.6
2022-12-29T05:46:57.436Z,651.7
2022-12-29T05:47:57.334Z,647.8
2022-12-29T05:48:57.327Z,644.6
2022-12-29T05:49:57.340Z,643.1
2022-12-29T05:50:57.325Z,642.2
2022-12-29T05:51:57.322Z,641.7
2022-12-29T05:52:57.323Z,641.5
2022-12-29T05:53:57.327Z,640.6
2022-12-29T05:54:57.360Z,639.5
2022-12-29T05:55:57.332Z,639.2
2022-12-29T05:56:57.337Z,639.5
2022-12-29T05:57:57.327Z,639.2
2022-12-29T05:58:57.334Z,638.1
2022-12-29T05:59:57.336Z,637
2022-12-29T06:00:57.327Z,636.8
2022-12-29T06:01:57.491Z,635.6
2022-12-29T06:02:57.514Z,634.3
2022-12-29T06:03:57.454Z,633.1
2022-12-29T06:05:57.327Z,633.3
2022-12-29T06:06:57.350Z,632.7
2022-12-29T06:07:57.342Z,632.4
2022-12-29T06:10:57.401Z,631
2022-12-29T06:11:57.336Z,630.8
2022-12-29T06:12:57.329Z,630.9
2022-12-29T06:13:57.340Z,631
2022-12-29T06:14:57.336Z,630.8
2022-12-29T06:15:57.355Z,631
2022-12-29T06:17:57.332Z,631.4
2022-12-29T06:18:57.329Z,631.4
2022-12-29T06:20:57.336Z,631.6
2022-12-29T06:21:57.347Z,631.4
2022-12-29T06:22:57.327Z,631.7
2022-12-29T06:23:57.476Z,631.6
2022-12-29T06:25:03.078Z,631.6
2022-12-29T06:26:57.335Z,631.7
2022-12-29T06:27:57.324Z,631.9
2022-12-29T06:28:57.330Z,632.1
2022-12-29T06:29:57.334Z,631.8
2022-12-29T06:30:57.347Z,632
2022-12-29T06:31:57.425Z,632
2022-12-29T06:32:57.323Z,632
2022-12-29T06:33:57.328Z,631.8
2022-12-29T06:36:57.333Z,632.1
2022-12-29T06:37:57.334Z,632.2
2022-12-29T06:38:57.328Z,632.1
2022-12-29T06:40:57.342Z,632.5
2022-12-29T06:41:57.361Z,632.4
2022-12-29T06:43:57.339Z,632.4
2022-12-29T06:44:57.334Z,632.4
2022-12-29T06:45:57.450Z,632.5
2022-12-29T06:46:57.334Z,632.6
2022-12-29T06:48:57.337Z,632.7
2022-12-29T06:49:57.332Z,632.5
2022-12-29T06:50:57.338Z,632.7
2022-12-29T06:51:57.333Z,632.8
2022-12-29T06:52:57.343Z,632.8
2022-12-29T06:53:57.361Z,633
2022-12-29T06:54:57.337Z,633.1
2022-12-29T06:56:57.332Z,633.1
2022-12-29T06:57:57.350Z,632.8
2022-12-29T06:58:57.331Z,633
2022-12-29T06:59:57.335Z,632.4
2022-12-29T07:01:57.534Z,632.3
2022-12-29T07:02:57.773Z,632.9
2022-12-29T07:03:57.341Z,632.5
2022-12-29T07:04:57.341Z,632.3
2022-12-29T07:07:57.342Z,632
2022-12-29T07:08:57.335Z,632.1
2022-12-29T07:09:57.339Z,632.3
2022-12-29T07:10:57.359Z,632.2
2022-12-29T07:11:57.332Z,632.4
2022-12-29T07:12:57.361Z,632.5
2022-12-29T07:13:57.408Z,632.5
2022-12-29T07:16:57.412Z,632.4
2022-12-29T07:18:57.338Z,632.2
2022-12-29T07:19:57.337Z,632.3
2022-12-29T07:20:57.349Z,632.2
2022-12-29T07:21:57.337Z,632.2
2022-12-29T07:22:57.328Z,632.5
2022-12-29T07:23:57.356Z,632.4
2022-12-29T07:24:57.336Z,632.3
2022-12-29T07:25:57.418Z,632.3
2022-12-29T07:26:57.369Z,632.3
2022-12-29T07:27:57.341Z,632.4
2022-12-29T07:28:57.367Z,632.2
2022-12-29T07:30:57.333Z,632.4
2022-12-29T07:31:57.448Z,632.6
2022-12-29T07:32:57.336Z,632.4
2022-12-29T07:33:57.344Z,632.5
2022-12-29T07:35:57.342Z,632.6
2022-12-29T07:36:57.336Z,632.6
2022-12-29T07:38:57.338Z,632.7
2022-12-29T07:39:57.385Z,632.7
2022-12-29T07:40:57.339Z,632.8
2022-12-29T07:42:04.353Z,632.9
2022-12-29T07:43:57.372Z,633.2
2022-12-29T07:44:57.351Z,633.3
2022-12-29T07:45:57.442Z,633.1
2022-12-29T07:46:58.808Z,633.3
2022-12-29T07:47:57.335Z,632.7
2022-12-29T07:48:57.361Z,632.3
2022-12-29T07:49:57.352Z,632.4
2022-12-29T07:50:57.356Z,632
2022-12-29T07:51:57.351Z,632.2
2022-12-29T07:53:57.335Z,632.2
2022-12-29T07:54:57.352Z,631.8
2022-12-29T07:55:57.333Z,632
2022-12-29T07:56:57.347Z,631.8
2022-12-29T07:58:57.355Z,632.1
2022-12-29T07:59:57.341Z,632.4
2022-12-29T08:00:57.387Z,631.6
2022-12-29T08:01:57.510Z,632
2022-12-29T08:03:57.961Z,632
2022-12-29T08:04:57.346Z,632
2022-12-29T08:05:57.341Z,631.9
2022-12-29T08:06:57.338Z,632.1
2022-12-29T08:07:57.337Z,632.2
2022-12-29T08:09:57.341Z,632
2022-12-29T08:10:57.345Z,632.2
2022-12-29T08:11:57.343Z,632.4
2022-12-29T08:12:57.350Z,632.1
2022-12-29T08:13:57.341Z,632.1
2022-12-29T08:14:57.366Z,632.2
2022-12-29T08:17:57.363Z,632.2
2022-12-29T08:18:57.336Z,632.2
2022-12-29T08:20:57.353Z,632.2
2022-12-29T08:21:57.360Z,632.2
2022-12-29T08:22:57.337Z,632.3
2022-12-29T08:23:57.343Z,632.2
2022-12-29T08:25:57.403Z,632
2022-12-29T08:26:57.356Z,632.2
2022-12-29T08:27:57.336Z,632.3
2022-12-29T08:29:57.337Z,632.1
2022-12-29T08:30:57.392Z,632.2
2022-12-29T08:31:57.345Z,632.3
2022-12-29T08:33:57.355Z,632.7
2022-12-29T08:34:57.344Z,632.3
2022-12-29T08:35:57.340Z,632.5
2022-12-29T08:36:57.337Z,632.4
2022-12-29T08:37:57.337Z,632.6
2022-12-29T08:38:57.347Z,632.2
2022-12-29T08:40:57.349Z,632.6
2022-12-29T08:41:57.348Z,632.3
2022-12-29T08:42:57.349Z,631.9
2022-12-29T08:44:57.341Z,632.3
2022-12-29T08:45:57.462Z,632.4
2022-12-29T08:46:58.560Z,632.5
2022-12-29T08:48:57.398Z,632.7
2022-12-29T08:49:57.347Z,632.4
2022-12-29T08:50:57.348Z,632.5
2022-12-29T08:51:57.364Z,632.3
2022-12-29T08:54:57.337Z,632.5
2022-12-29T08:56:02.419Z,632.1
2022-12-29T08:56:57.341Z,632.3
2022-12-29T08:57:57.343Z,632.3
2022-12-29T09:00:57.352Z,632
2022-12-29T09:01:57.530Z,632.4
2022-12-29T09:02:57.490Z,632.5
2022-12-29T09:04:15.015Z,631.7
2022-12-29T09:04:57.432Z,632.2
2022-12-29T09:05:57.337Z,632.4
2022-12-29T09:06:57.335Z,632.2
2022-12-29T09:07:57.334Z,632.3
2022-12-29T09:08:57.341Z,632
2022-12-29T09:09:57.363Z,632.2
2022-12-29T09:10:57.338Z,631.8
2022-12-29T09:11:57.345Z,632.2
2022-12-29T09:12:57.348Z,631.9
2022-12-29T09:13:57.357Z,632.1
2022-12-29T09:15:57.408Z,632.4
2022-12-29T09:16:57.378Z,632.4
2022-12-29T09:17:57.358Z,632.5
2022-12-29T09:18:57.341Z,632.7
2022-12-29T09:21:57.342Z,632.9
2022-12-29T09:22:57.342Z,633.2
2022-12-29T09:23:57.331Z,633.1
2022-12-29T09:24:57.345Z,632.8
2022-12-29T09:25:57.398Z,633
2022-12-29T09:26:57.341Z,633.1
2022-12-29T09:28:57.343Z,633.4
2022-12-29T09:29:57.343Z,633.2
2022-12-29T09:30:57.435Z,633.6
2022-12-29T09:31:57.353Z,633.1
2022-12-29T09:34:57.382Z,633.1
2022-12-29T09:35:57.341Z,633
2022-12-29T09:36:57.345Z,633.1
2022-12-29T09:38:57.341Z,633
2022-12-29T09:39:57.354Z,633.1
2022-12-29T09:40:57.360Z,633
2022-12-29T09:42:57.362Z,633.2
2022-12-29T09:43:57.372Z,632.7
2022-12-29T09:44:57.344Z,632.9
2022-12-29T09:45:57.349Z,633.2
2022-12-29T09:46:57.489Z,633.1
2022-12-29T09:47:57.375Z,632.6
2022-12-29T09:48:57.350Z,632.9
2022-12-29T09:49:57.342Z,632.8
2022-12-29T09:50:57.337Z,632.9
2022-12-29T09:51:57.343Z,633
2022-12-29T09:55:02.855Z,632.8
2022-12-29T09:55:57.341Z,632.6
2022-12-29T09:56:57.350Z,632.5
2022-12-29T09:57:57.370Z,632.9
2022-12-29T09:58:57.338Z,633
2022-12-29T09:59:57.340Z,632.8
2022-12-29T10:00:57.488Z,632.8
2022-12-29T10:01:57.582Z,633.3
2022-12-29T10:02:57.440Z,632.5
2022-12-29T10:03:57.346Z,632.7
2022-12-29T10:04:57.335Z,632.6
2022-12-29T10:05:57.345Z,633.1
2022-12-29T10:07:27.980Z,633
2022-12-29T10:07:57.350Z,633
2022-12-29T10:08:57.346Z,632.9
2022-12-29T10:09:57.346Z,632.6
2022-12-29T10:10:57.367Z,633
2022-12-29T10:11:57.359Z,633
2022-12-29T10:13:57.369Z,632.5
2022-12-29T10:16:57.356Z,632.7
2022-12-29T10:18:57.373Z,632.8
2022-12-29T10:20:57.339Z,632.8
2022-12-29T10:21:57.351Z,633.1
2022-12-29T10:22:57.344Z,632.6
2022-12-29T10:23:57.374Z,632.7
2022-12-29T10:24:57.344Z,632.8
2022-12-29T10:25:57.368Z,633.1
2022-12-29T10:26:57.350Z,632.9
2022-12-29T10:28:57.349Z,633.1
2022-12-29T10:29:57.351Z,632.7
2022-12-29T10:30:57.370Z,633.1
2022-12-29T10:31:57.411Z,632.9
2022-12-29T10:32:57.350Z,632.8
2022-12-29T10:33:57.365Z,633.4
2022-12-29T10:34:57.387Z,633.2
2022-12-29T10:35:57.348Z,633.1
2022-12-29T10:37:57.363Z,633.2
2022-12-29T10:38:57.356Z,633.5
2022-12-29T10:39:57.353Z,633.2
2022-12-29T10:40:57.351Z,632.9
2022-12-29T10:44:57.358Z,633.1
2022-12-29T10:45:57.403Z,633.1
2022-12-29T10:46:57.352Z,633
2022-12-29T10:48:57.359Z,633.3
2022-12-29T10:49:57.376Z,633.2
2022-12-29T10:51:01.764Z,633.4
2022-12-29T10:51:57.347Z,633.4
2022-12-29T10:52:57.355Z,633.3
2022-12-29T10:53:57.346Z,633.3
2022-12-29T10:54:57.364Z,633.5
2022-12-29T10:56:57.346Z,633.2
2022-12-29T10:57:57.401Z,633.1
2022-12-29T10:58:57.361Z,633.3
2022-12-29T10:59:57.355Z,633.2
2022-12-29T11:00:57.454Z,633.4
2022-12-29T11:01:57.461Z,633.1
2022-12-29T11:03:57.356Z,633.5
2022-12-29T11:04:57.383Z,633.3
2022-12-29T11:05:57.360Z,633.1
2022-12-29T11:06:57.360Z,633.4
2022-12-29T11:07:57.365Z,633.3
2022-12-29T11:08:57.356Z,633.4
2022-12-29T11:09:57.356Z,633.3
2022-12-29T11:10:57.410Z,633.1
2022-12-29T11:11:57.347Z,633.4
2022-12-29T11:12:57.355Z,633.1
2022-12-29T11:13:57.359Z,633
2022-12-29T11:15:57.363Z,633.3
2022-12-29T11:17:57.358Z,633.4
2022-12-29T11:18:57.342Z,633.1
2022-12-29T11:19:57.359Z,633.1
2022-12-29T11:20:57.384Z,633.1
2022-12-29T11:22:57.358Z,633.7
2022-12-29T11:23:57.394Z,633.4
2022-12-29T11:24:57.353Z,633.2
2022-12-29T11:25:57.366Z,633.5
2022-12-29T11:26:57.350Z,633.2
2022-12-29T11:27:57.356Z,633.6
2022-12-29T11:28:57.361Z,633.2
2022-12-29T11:29:57.366Z,633.5
2022-12-29T11:31:57.445Z,633.2
2022-12-29T11:32:57.374Z,633.3
2022-12-29T11:34:57.352Z,633.2
2022-12-29T11:36:57.354Z,633.3
2022-12-29T11:38:57.343Z,633.3
2022-12-29T11:39:57.378Z,633.3
2022-12-29T11:40:57.342Z,633.6
2022-12-29T11:41:57.361Z,633.1
2022-12-29T11:43:57.401Z,633.5
2022-12-29T11:44:57.360Z,633.8
2022-12-29T11:46:57.353Z,633.1
2022-12-29T11:47:57.353Z,633.1
2022-12-29T11:48:57.357Z,633.1
2022-12-29T11:49:57.348Z,633.5
2022-12-29T11:51:57.377Z,633.3
2022-12-29T11:53:57.348Z,633.7
2022-12-29T11:54:57.392Z,633
2022-12-29T11:55:57.357Z,633.5
2022-12-29T11:56:57.351Z,633.7
2022-12-29T11:57:57.354Z,633.7
2022-12-29T11:58:57.364Z,633.3
2022-12-29T11:59:57.398Z,633.6
2022-12-29T12:00:57.358Z,633.2
2022-12-29T12:01:57.564Z,633.6
2022-12-29T12:02:57.496Z,633.4
2022-12-29T12:03:57.403Z,633.2
2022-12-29T12:04:57.352Z,633.1
2022-12-29T12:05:57.400Z,632.9
2022-12-29T12:06:57.353Z,633.5
2022-12-29T12:07:57.360Z,633.4
2022-12-29T12:08:57.363Z,633.3
2022-12-29T12:10:03.111Z,633.3
2022-12-29T12:10:57.351Z,633.3
2022-12-29T12:11:57.350Z,633.4
2022-12-29T12:12:57.364Z,633.3
2022-12-29T12:14:57.361Z,633.3
2022-12-29T12:16:57.405Z,633.3
2022-12-29T12:17:57.367Z,633.5
2022-12-29T12:18:57.375Z,633.4
2022-12-29T12:19:57.363Z,633.6
2022-12-29T12:20:57.362Z,633.6
2022-12-29T12:21:57.392Z,633.8
2022-12-29T12:22:57.399Z,633.3
2022-12-29T12:23:57.357Z,633.2
2022-12-29T12:24:57.355Z,633.8
2022-12-29T12:25:57.354Z,633.5
2022-12-29T12:26:57.349Z,633.3
2022-12-29T12:27:57.352Z,633.2
2022-12-29T12:28:57.364Z,634.1
2022-12-29T12:29:57.377Z,633.8
2022-12-29T12:30:57.463Z,633.3
2022-12-29T12:31:57.368Z,633.6
2022-12-29T12:32:57.361Z,633.4
2022-12-29T12:33:57.370Z,633.6
2022-12-29T12:34:57.356Z,633.4
2022-12-29T12:35:57.369Z,633.3
2022-12-29T12:36:57.353Z,633.4
2022-12-29T12:37:57.358Z,633.4
2022-12-29T12:38:57.349Z,633.4
2022-12-29T12:39:57.365Z,633.4
2022-12-29T12:40:57.353Z,633.5
2022-12-29T12:41:57.365Z,633.2
2022-12-29T12:42:57.369Z,633.2
2022-12-29T12:43:59.030Z,633.4
2022-12-29T12:44:57.352Z,633.4
2022-12-29T12:45:57.430Z,633.1
2022-12-29T12:46:57.438Z,633.2
2022-12-29T12:48:57.353Z,633.7
2022-12-29T12:49:57.391Z,632.8
2022-12-29T12:50:57.355Z,633
2022-12-29T12:53:57.374Z,633.2
2022-12-29T12:54:57.475Z,633
2022-12-29T12:55:57.348Z,633.5
2022-12-29T12:56:57.385Z,633
2022-12-29T12:57:57.361Z,633.2
2022-12-29T12:58:57.373Z,633.2
2022-12-29T12:59:58.134Z,633.1
2022-12-29T13:00:57.360Z,633.5
2022-12-29T13:01:57.516Z,633.4
2022-12-29T13:02:57.649Z,632.8
2022-12-29T13:03:57.404Z,633
2022-12-29T13:05:57.354Z,633.1
2022-12-29T13:06:57.354Z,633.2
2022-12-29T13:07:57.432Z,633.4
2022-12-29T13:08:57.362Z,633.3
2022-12-29T13:10:57.360Z,633.1
2022-12-29T13:12:57.357Z,633.2
2022-12-29T13:13:57.431Z,633.2
2022-12-29T13:14:57.374Z,633.3
2022-12-29T13:15:57.420Z,633.2
2022-12-29T13:16:57.348Z,633.3
2022-12-29T13:22:03.836Z,633
2022-12-29T13:22:57.356Z,633.2
2022-12-29T13:23:57.497Z,633.2
2022-12-29T13:26:57.371Z,632.9
2022-12-29T13:27:57.372Z,632.6
2022-12-29T13:29:57.355Z,633
2022-12-29T13:31:57.355Z,633.4
2022-12-29T13:32:57.361Z,633
2022-12-29T13:33:57.375Z,633.1
2022-12-29T13:34:57.387Z,633.2
2022-12-29T13:35:57.357Z,633.5
2022-12-29T13:36:57.401Z,633.3
2022-12-29T13:37:57.380Z,633.3
2022-12-29T13:38:57.368Z,633.2
2022-12-29T13:39:57.375Z,633
2022-12-29T13:40:57.360Z,633.6
2022-12-29T13:41:57.456Z,633.3
2022-12-29T13:42:57.364Z,633.3
2022-12-29T13:43:57.355Z,633.5
2022-12-29T13:44:57.356Z,633.4
2022-12-29T13:45:57.356Z,633.3
2022-12-29T13:47:57.369Z,633
2022-12-29T13:48:57.369Z,633
2022-12-29T13:52:57.357Z,632.8
2022-12-29T13:53:57.347Z,632.7
2022-12-29T13:54:57.367Z,632.7
2022-12-29T13:55:57.393Z,632.8
2022-12-29T13:57:57.358Z,633
2022-12-29T13:58:57.354Z,633.1
2022-12-29T13:59:57.428Z,633
2022-12-29T14:01:57.556Z,633.1
2022-12-29T14:02:57.871Z,632.8
2022-12-29T14:03:57.589Z,633.5
2022-12-29T14:04:57.384Z,633.2
2022-12-29T14:06:57.361Z,632.8
2022-12-29T14:07:57.366Z,633.1
2022-12-29T14:10:57.358Z,633.4
2022-12-29T14:11:57.359Z,633.4
2022-12-29T14:12:57.376Z,633.3
2022-12-29T14:13:57.364Z,633.3
2022-12-29T14:14:57.360Z,633.2
2022-12-29T14:15:57.391Z,633.4
2022-12-29T14:16:57.361Z,633.3
2022-12-29T14:17:57.367Z,633.1
2022-12-29T14:18:57.365Z,633
2022-12-29T14:21:57.358Z,633
2022-12-29T14:23:57.428Z,632.8
2022-12-29T14:24:57.369Z,633
2022-12-29T14:25:57.389Z,633.1
2022-12-29T14:26:57.388Z,632.7
2022-12-29T14:29:02.905Z,632.9
2022-12-29T14:29:57.391Z,633
2022-12-29T14:31:57.439Z,632.4
2022-12-29T14:32:57.350Z,632.8
2022-12-29T14:33:57.353Z,632.6
2022-12-29T14:34:57.369Z,632.6
2022-12-29T14:35:57.367Z,632.5
2022-12-29T14:36:57.374Z,632.5
2022-12-29T14:37:57.363Z,632.4
2022-12-29T14:38:57.369Z,632.4
2022-12-29T14:39:57.361Z,632.4
2022-12-29T14:40:57.366Z,632.3
2022-12-29T14:42:57.376Z,632
2022-12-29T14:44:57.356Z,632.3
2022-12-29T14:45:57.357Z,632.3
2022-12-29T14:46:57.476Z,632.1
2022-12-29T14:47:57.357Z,632.2
2022-12-29T14:48:57.357Z,632.3
2022-12-29T14:49:57.368Z,632
2022-12-29T14:50:57.361Z,632.4
2022-12-29T14:51:57.356Z,632
2022-12-29T14:53:03.054Z,632
2022-12-29T14:53:57.363Z,631.9
2022-12-29T14:54:57.369Z,632.2
2022-12-29T14:55:57.356Z,632.3
2022-12-29T14:56:57.365Z,632.2
2022-12-29T14:57:57.399Z,632
2022-12-29T14:58:57.477Z,632.1
2022-12-29T14:59:57.360Z,632
2022-12-29T15:00:57.469Z,632
2022-12-29T15:01:57.533Z,632.1
2022-12-29T15:04:57.356Z,632.3
2022-12-29T15:05:57.413Z,632
2022-12-29T15:07:57.371Z,632.4
2022-12-29T15:09:57.365Z,632.1
2022-12-29T15:12:57.364Z,632.3
2022-12-29T15:13:57.359Z,632.4
2022-12-29T15:14:57.372Z,632.2
2022-12-29T15:15:57.399Z,632.4
2022-12-29T15:17:57.360Z,632.2
2022-12-29T15:18:57.384Z,632.3
2022-12-29T15:19:57.385Z,632.3
2022-12-29T15:20:57.367Z,632.1
2022-12-29T15:21:57.408Z,632.3
2022-12-29T15:23:57.365Z,631.8
2022-12-29T15:24:57.388Z,632.3
2022-12-29T15:25:57.380Z,632.8
2022-12-29T15:26:57.395Z,632.2
2022-12-29T15:27:57.366Z,632.7
2022-12-29T15:28:57.425Z,632.2
2022-12-29T15:29:57.379Z,632.1
2022-12-29T15:30:57.376Z,632.2
2022-12-29T15:31:57.445Z,632.7
2022-12-29T15:32:57.365Z,632.2
2022-12-29T15:34:57.367Z,632.2
2022-12-29T15:35:57.359Z,632.2
2022-12-29T15:36:57.366Z,632.5
2022-12-29T15:38:57.375Z,632.4
2022-12-29T15:39:57.365Z,632.3
2022-12-29T15:40:57.433Z,632.4
2022-12-29T15:41:57.362Z,632.2
2022-12-29T15:43:57.358Z,632.2
2022-12-29T15:45:09.386Z,632.4
2022-12-29T15:45:57.404Z,632
2022-12-29T15:46:57.392Z,632.2
2022-12-29T15:47:57.366Z,632
2022-12-29T15:48:57.365Z,632.2
2022-12-29T15:49:57.363Z,632.1
2022-12-29T15:50:57.366Z,631.8
2022-12-29T15:51:57.361Z,632.4
2022-12-29T15:54:57.369Z,632.1
2022-12-29T15:56:02.983Z,632.5
2022-12-29T15:56:57.363Z,632.5
2022-12-29T15:57:57.362Z,632.4
2022-12-29T15:59:57.397Z,632.1
2022-12-29T16:00:57.405Z,632.1
2022-12-29T16:01:57.589Z,632.1
2022-12-29T16:02:57.502Z,632.3
2022-12-29T16:05:19.806Z,631.9
2022-12-29T16:05:57.361Z,632.2
2022-12-29T16:07:57.364Z,632.1